Time;durP1;ratioP1;P1;durP2;ratioP2;P2;SDS_P1;SDS_P2;PMS_P1;PMS_P2;Temp;Humidity;BMP_temperature;BMP_pressure;BME280_temperature;BME280_humidity;BME280_pressure;Samples;Min_cycle;Max_cycle;Signal;HPM_P1;HPM_P2
2024/04/08 00:00:00;;;;;;;28.92;27.23;;;;;;;6.83;100.00;101892.41;5101082;28;20055;-85
2024/04/08 00:02:28;;;;;;;28.00;26.30;;;;;;;7.14;100.00;101890.19;5094540;28;20068;-84
2024/04/08 00:04:57;;;;;;;28.38;26.58;;;;;;;7.21;100.00;101893.84;5097087;28;20518;-85
2024/04/08 00:07:24;;;;;;;28.83;27.08;;;;;;;6.92;100.00;101896.78;5094514;28;20109;-85
2024/04/08 00:09:50;;;;;;;26.52;25.00;;;;;;;7.03;100.00;101887.78;5103484;28;20080;-84
2024/04/08 00:12:26;;;;;;;29.65;27.95;;;;;;;6.74;100.00;101888.03;5113967;28;20058;-84
2024/04/08 00:14:52;;;;;;;28.60;26.90;;;;;;;6.78;100.00;101898.16;5105515;28;20047;-76
2024/04/08 00:17:19;;;;;;;29.70;28.10;;;;;;;6.77;100.00;101898.31;5104466;28;20047;-76
2024/04/08 00:19:46;;;;;;;25.52;24.13;;;;;;;6.62;100.00;101898.81;5095934;28;20628;-76
2024/04/08 00:22:14;;;;;;;26.58;25.08;;;;;;;6.53;100.00;101891.81;5112469;28;20143;-76
2024/04/08 00:24:41;;;;;;;27.77;26.27;;;;;;;6.62;100.00;101898.81;5103241;28;20523;-76
2024/04/08 00:27:08;;;;;;;27.20;25.70;;;;;;;6.42;100.00;101900.78;5107987;28;20517;-76
2024/04/08 00:29:34;;;;;;;29.55;27.85;;;;;;;6.53;100.00;101905.00;5106466;28;20112;-76
2024/04/08 00:32:02;;;;;;;29.30;27.70;;;;;;;6.60;100.00;101905.25;5102359;28;20062;-76
2024/04/08 00:34:28;;;;;;;29.95;28.40;;;;;;;6.42;100.00;101907.88;5091496;28;20050;-76
2024/04/08 00:36:59;;;;;;;25.23;23.92;;;;;;;6.59;100.00;101914.13;5107075;28;20054;-75
2024/04/08 00:39:27;;;;;;;32.00;30.20;;;;;;;6.50;100.00;101905.31;5108691;28;20052;-76
2024/04/08 00:41:54;;;;;;;29.50;27.80;;;;;;;6.57;100.00;101910.84;5094872;28;20052;-75
2024/04/08 00:44:20;;;;;;;28.70;27.10;;;;;;;6.49;100.00;101913.41;5091515;28;20051;-76
2024/04/08 00:46:48;;;;;;;26.90;25.40;;;;;;;6.65;100.00;101908.25;5093827;28;20151;-75
2024/04/08 00:49:15;;;;;;;28.55;26.95;;;;;;;6.84;100.00;101908.13;5100649;28;20062;-76
2024/04/08 00:51:43;;;;;;;29.95;28.45;;;;;;;6.75;100.00;101908.22;5093767;28;20120;-76
2024/04/08 00:54:09;;;;;;;31.27;29.67;;;;;;;6.55;100.00;101912.78;5091762;28;20056;-75
2024/04/08 00:56:50;;;;;;;28.92;27.33;;;;;;;-143.39;100.00;66143.34;5099402;28;20126;-75
2024/04/08 00:59:19;;;;;;;28.92;27.33;;;;;;;6.63;100.00;101911.06;5101826;28;20059;-75
2024/04/08 01:01:46;;;;;;;29.77;28.27;;;;;;;6.42;100.00;101914.00;5096270;28;20126;-76
2024/04/08 01:04:12;;;;;;;30.48;28.88;;;;;;;6.33;100.00;101906.16;5094339;28;20055;-75
2024/04/08 01:06:39;;;;;;;29.02;27.63;;;;;;;6.26;100.00;101903.25;5097968;28;20051;-76
2024/04/08 01:09:06;;;;;;;27.50;26.20;;;;;;;6.18;100.00;101905.81;5100004;28;20073;-75
2024/04/08 01:11:33;;;;;;;26.17;24.77;;;;;;;6.40;100.00;101913.31;5090930;28;20054;-75
2024/04/08 01:14:01;;;;;;;28.60;27.10;;;;;;;6.41;100.00;101903.56;5095723;28;20047;-76
2024/04/08 01:16:28;;;;;;;29.80;28.23;;;;;;;6.41;100.00;101903.56;5100979;28;20130;-75
2024/04/08 01:18:54;;;;;;;29.90;28.30;;;;;;;6.22;100.00;101908.97;5095773;28;20051;-75
2024/04/08 01:21:22;;;;;;;27.10;25.67;;;;;;;5.78;100.00;101912.25;5111256;28;20128;-76
2024/04/08 01:23:51;;;;;;;30.15;28.45;;;;;;;6.47;100.00;101908.25;5102936;28;20040;-76
2024/04/08 01:26:18;;;;;;;28.58;27.02;;;;;;;6.12;100.00;101909.88;5105147;28;20047;-76
2024/04/08 01:28:45;;;;;;;32.20;30.50;;;;;;;6.32;100.00;101905.28;5111174;28;20100;-76
2024/04/08 01:31:14;;;;;;;36.22;34.33;;;;;;;6.21;100.00;101904.69;5110205;27;20066;-75
2024/04/08 01:33:46;;;;;;;29.20;27.60;;;;;;;6.11;100.00;101905.59;5101702;28;20122;-75
2024/04/08 01:36:15;;;;;;;30.55;28.48;;;;;;;6.04;100.00;101906.31;5110283;28;20079;-76
2024/04/08 01:38:42;;;;;;;28.17;26.58;;;;;;;6.03;100.00;101897.56;5096170;28;20501;-75
2024/04/08 01:41:11;;;;;;;28.77;27.27;;;;;;;5.81;100.00;101897.91;5089098;28;20239;-76
2024/04/08 01:43:37;;;;;;;27.92;26.42;;;;;;;5.83;100.00;101894.16;5092771;28;20057;-76
2024/04/08 01:46:05;;;;;;;29.00;27.40;;;;;;;6.19;100.00;101900.38;5097426;28;20052;-75
2024/04/08 01:48:32;;;;;;;28.50;27.00;;;;;;;6.38;100.00;101895.94;5105473;28;20530;-76
2024/04/08 01:50:59;;;;;;;30.05;28.55;;;;;;;6.26;100.00;101905.06;5111291;28;20055;-76
2024/04/08 01:53:25;;;;;;;27.55;26.15;;;;;;;6.16;100.00;101903.31;5110536;28;20503;-75
2024/04/08 01:55:52;;;;;;;29.42;27.83;;;;;;;5.82;100.00;101900.41;5108936;28;20495;-75
2024/04/08 01:58:20;;;;;;;29.65;28.05;;;;;;;6.22;100.00;101908.97;5105796;28;20052;-75
2024/04/08 02:00:58;;;;;;;33.30;31.60;;;;;;;6.32;100.00;101913.22;5094179;28;20105;-84
2024/04/08 02:03:25;;;;;;;34.55;32.90;;;;;;;6.14;100.00;101917.63;5091270;28;20051;-84
2024/04/08 02:06:00;;;;;;;32.92;31.25;;;;;;;6.04;100.00;101906.31;5103395;28;20044;-84
2024/04/08 02:08:29;;;;;;;34.92;33.22;;;;;;;6.10;100.00;101913.63;5092556;28;20054;-84
2024/04/08 02:11:03;;;;;;;34.40;32.70;;;;;;;6.07;100.00;101920.03;5107996;28;20044;-84
2024/04/08 02:13:31;;;;;;;33.30;31.42;;;;;;;5.90;100.00;101921.63;5094314;28;20044;-84
2024/04/08 02:15:58;;;;;;;29.92;28.63;;;;;;;5.88;100.00;101917.47;5102158;28;20071;-76
2024/04/08 02:18:24;;;;;;;34.10;32.55;;;;;;;5.62;100.00;101914.63;5101681;28;20631;-75
2024/04/08 02:20:51;;;;;;;32.85;31.35;;;;;;;5.79;100.00;101921.78;5098888;28;20443;-75
2024/04/08 02:23:17;;;;;;;37.90;35.65;;;;;;;5.76;100.00;101916.81;5097618;28;20051;-76
2024/04/08 02:25:47;;;;;;;34.13;32.42;;;;;;;5.68;100.00;101921.97;5105296;28;20544;-75
2024/04/08 02:28:16;;;;;;;32.10;30.60;;;;;;;5.62;100.00;101923.38;5089708;28;20139;-84
2024/04/08 02:30:45;;;;;;;35.00;33.30;;;;;;;5.56;100.00;101923.13;5095024;28;20044;-84
2024/04/08 02:33:12;;;;;;;35.20;33.50;;;;;;;5.77;100.00;101928.19;5107307;28;20040;-84
2024/04/08 02:35:42;;;;;;;35.90;34.10;;;;;;;5.69;100.00;101923.66;5093592;28;20051;-84
2024/04/08 02:38:08;;;;;;;38.83;36.83;;;;;;;5.77;100.00;101926.38;5107877;28;20051;-84
2024/04/08 02:40:41;;;;;;;34.92;33.28;;;;;;;5.81;100.00;101929.53;5103937;28;20048;-84
2024/04/08 02:43:08;;;;;;;37.80;36.05;;;;;;;5.78;100.00;101929.84;5094528;28;20098;-83
2024/04/08 02:45:35;;;;;;;35.53;33.80;;;;;;;5.66;100.00;101922.13;5096570;28;20055;-84
2024/04/08 02:48:03;;;;;;;32.22;30.52;;;;;;;5.53;100.00;101929.50;5108287;28;20051;-84
2024/04/08 02:50:30;;;;;;;32.20;30.70;;;;;;;5.51;100.00;101928.84;5101460;28;20048;-84
2024/04/08 02:52:56;;;;;;;28.85;27.45;;;;;;;5.47;100.00;101930.91;5093575;28;20088;-84
2024/04/08 02:55:23;;;;;;;36.17;34.47;;;;;;;5.41;100.00;101931.47;5096193;28;20059;-83
2024/04/08 02:57:49;;;;;;;28.80;27.50;;;;;;;5.41;100.00;101925.38;5108762;28;20043;-84
2024/04/08 03:00:17;;;;;;;28.58;27.17;;;;;;;5.24;100.00;101929.59;5093802;28;20059;-84
2024/04/08 03:02:44;;;;;;;26.08;24.98;;;;;;;5.31;100.00;101930.69;5089085;28;20056;-84
2024/04/08 03:05:12;;;;;;;27.73;26.42;;;;;;;5.32;100.00;101915.69;5094443;28;20047;-84
2024/04/08 03:07:38;;;;;;;29.13;27.73;;;;;;;5.32;100.00;101916.53;5106011;28;20096;-84
2024/04/08 03:10:06;;;;;;;27.85;26.55;;;;;;;5.28;100.00;101925.69;5107137;28;20089;-84
2024/04/08 03:12:33;;;;;;;32.88;31.27;;;;;;;5.16;100.00;101919.75;5089237;28;20051;-83
2024/04/08 03:15:00;;;;;;;28.35;26.75;;;;;;;5.40;100.00;101921.09;5089348;28;20044;-84
2024/04/08 03:17:28;;;;;;;28.27;26.88;;;;;;;5.36;100.00;101925.81;5107962;28;20069;-84
2024/04/08 03:19:57;;;;;;;25.38;24.08;;;;;;;5.40;100.00;101934.25;5106729;28;20047;-84
2024/04/08 03:22:28;;;;;;;22.92;21.83;;;;;;;5.43;100.00;101932.19;5101249;28;20477;-84
2024/04/08 03:24:55;;;;;;;19.40;18.60;;;;;;;5.23;100.00;101934.03;5099748;28;20066;-84
2024/04/08 03:27:22;;;;;;;22.20;21.20;;;;;;;5.46;100.00;101926.63;5097521;28;20086;-84
2024/04/08 03:29:51;;;;;;;22.77;21.67;;;;;;;5.74;100.00;101939.84;5087147;28;20525;-84
2024/04/08 03:32:17;;;;;;;22.40;21.30;;;;;;;5.82;100.00;101936.50;5068874;28;20531;-76
2024/04/08 03:34:44;;;;;;;25.42;23.70;;;;;;;5.92;100.00;101940.75;5101059;28;20093;-75
2024/04/08 03:37:12;;;;;;;24.20;22.90;;;;;;;6.14;100.00;101942.22;5105006;28;20051;-76
2024/04/08 03:39:40;;;;;;;23.27;22.20;;;;;;;5.94;100.00;101946.75;5091373;28;20056;-76
2024/04/08 03:42:07;;;;;;;28.63;27.13;;;;;;;6.01;100.00;101941.72;5088787;28;20091;-75
2024/04/08 03:44:36;;;;;;;22.88;21.58;;;;;;;5.90;100.00;101937.44;5088058;28;20040;-75
2024/04/08 03:47:02;;;;;;;23.48;21.98;;;;;;;6.30;100.00;101938.94;5093658;28;20058;-76
2024/04/08 03:49:29;;;;;;;28.23;26.63;;;;;;;6.24;100.00;101944.81;5102623;28;20048;-76
2024/04/08 03:51:56;;;;;;;23.40;22.10;;;;;;;6.34;100.00;101950.84;5104304;28;20060;-76
2024/04/08 03:54:23;;;;;;;24.00;22.60;;;;;;;6.33;100.00;101951.00;5093168;28;20056;-75
2024/04/08 03:56:50;;;;;;;23.27;21.98;;;;;;;6.25;100.00;101943.81;5102974;28;20813;-76
2024/04/08 03:59:17;;;;;;;21.88;20.73;;;;;;;6.39;100.00;101953.06;5089213;28;20695;-75
2024/04/08 04:01:44;;;;;;;24.05;22.75;;;;;;;6.33;100.00;101949.19;5093673;28;20044;-76
2024/04/08 04:04:11;;;;;;;23.63;22.42;;;;;;;6.50;100.00;101952.81;5092257;28;20040;-76
2024/04/08 04:06:37;;;;;;;24.52;23.13;;;;;;;6.46;100.00;101951.47;5095871;28;20043;-75
2024/04/08 04:09:04;;;;;;;30.50;28.40;;;;;;;6.54;100.00;101956.84;5101333;28;20052;-76
2024/04/08 04:11:30;;;;;;;31.35;29.08;;;;;;;6.60;100.00;101963.34;5093200;28;20534;-76
2024/04/08 04:13:59;;;;;;;23.55;21.95;;;;;;;6.60;100.00;101966.81;5096401;28;20515;-84
2024/04/08 04:16:28;;;;;;;27.35;24.75;;;;;;;6.65;100.00;101956.59;5095916;28;20109;-85
2024/04/08 04:19:02;;;;;;;19.55;18.35;;;;;;;6.78;100.00;101971.28;5104163;28;20043;-84
2024/04/08 04:21:29;;;;;;;18.00;17.00;;;;;;;6.86;100.00;101969.53;5099898;28;20047;-84
2024/04/08 04:23:56;;;;;;;19.60;18.50;;;;;;;6.97;100.00;101972.94;5073927;28;20045;-76
2024/04/08 04:26:22;;;;;;;20.13;19.02;;;;;;;7.11;100.00;101975.03;5091136;28;20059;-77
2024/04/08 04:28:49;;;;;;;21.92;20.63;;;;;;;7.04;100.00;101972.16;5092092;28;20438;-76
2024/04/08 04:31:16;;;;;;;20.35;19.15;;;;;;;7.04;100.00;101966.88;5089820;28;20048;-77
2024/04/08 04:33:44;;;;;;;18.55;17.45;;;;;;;7.17;100.00;101966.50;5093742;28;20044;-77
2024/04/08 04:36:10;;;;;;;21.02;19.83;;;;;;;7.27;100.00;101961.94;5088172;28;20055;-76
2024/04/08 04:38:37;;;;;;;21.15;19.85;;;;;;;7.27;100.00;101959.31;5096669;28;20101;-84
2024/04/08 04:41:05;;;;;;;23.65;22.25;;;;;;;7.32;100.00;101966.75;5091122;28;20047;-84
2024/04/08 04:43:33;;;;;;;20.35;19.15;;;;;;;7.33;100.00;101971.09;5094823;28;20043;-85
2024/04/08 04:46:00;;;;;;;20.13;18.92;;;;;;;7.92;100.00;82101.59;5087881;28;20520;-84
2024/04/08 04:48:29;;;;;;;23.30;22.00;;;;;;;10.53;100.00;101981.88;5091342;28;20056;-84
2024/04/08 04:50:55;;;;;;;42.50;21.90;;;;;;;8.03;100.00;101978.94;5092438;28;20044;-84
2024/04/08 04:53:22;;;;;;;26.00;24.30;;;;;;;7.87;100.00;101985.00;5092633;28;20063;-84
2024/04/08 04:55:52;;;;;;;23.83;22.42;;;;;;;7.91;100.00;101974.91;5111295;28;20047;-84
2024/04/08 04:58:20;;;;;;;24.35;22.95;;;;;;;7.97;100.00;101977.75;5112433;28;20507;-84
2024/04/08 05:00:47;;;;;;;24.90;23.38;;;;;;;8.14;100.00;101989.25;5093401;28;20394;-83
2024/04/08 05:03:14;;;;;;;24.75;23.25;;;;;;;8.13;100.00;101974.34;5099838;28;20079;-84
2024/04/08 05:05:51;;;;;;;22.38;21.05;;;;;;;8.46;100.00;101985.09;5095570;28;20040;-84
2024/04/08 05:08:18;;;;;;;25.02;23.55;;;;;;;-143.39;100.00;64013.03;5091580;28;20459;-84
2024/04/08 05:10:47;;;;;;;26.10;24.40;;;;;;;8.48;100.00;101988.41;5091070;28;20044;-76
2024/04/08 05:13:16;;;;;;;24.75;23.20;;;;;;;8.46;100.00;101988.56;5093669;28;20105;-76
2024/04/08 05:15:43;;;;;;;25.45;23.85;;;;;;;8.73;100.00;101986.66;5090752;28;20586;-75
2024/04/08 05:18:12;;;;;;;24.67;23.08;;;;;;;8.66;100.00;101983.00;5091632;28;20052;-75
2024/04/08 05:20:39;;;;;;;24.67;22.95;;;;;;;8.69;100.00;101987.97;5102062;28;20062;-75
2024/04/08 05:23:11;;;;;;;24.92;23.42;;;;;;;9.04;100.00;101975.41;5091600;28;20105;-76
2024/04/08 05:25:39;;;;;;;;;;;;;;;9.10;100.00;101978.22;5104782;28;20112;-84
2024/04/08 05:28:05;;;;;;;24.65;23.08;;;;;;;9.18;100.00;101977.41;5092107;28;19923;-84
2024/04/08 05:30:34;;;;;;;25.35;23.75;;;;;;;9.40;100.00;101971.44;5105187;28;20048;-83
2024/04/08 05:33:01;;;;;;;25.80;24.10;;;;;;;9.47;100.00;101970.75;5094633;28;20044;-83
2024/04/08 05:35:30;;;;;;;26.13;24.42;;;;;;;9.67;100.00;101966.75;5089498;28;20102;-75
2024/04/08 05:37:56;;;;;;;27.77;25.88;;;;;;;9.96;100.00;101970.66;5096426;28;20048;-83
2024/04/08 05:40:25;;;;;;;27.67;25.77;;;;;;;9.98;100.00;101974.78;5092001;28;20105;-83
2024/04/08 05:42:53;;;;;;;27.80;25.90;;;;;;;10.07;100.00;101964.97;5111626;28;20055;-83
2024/04/08 05:45:21;;;;;;;28.48;26.52;;;;;;;10.09;100.00;101973.59;5091556;28;20054;-83
2024/04/08 05:47:53;;;;;;;29.40;27.30;;;;;;;10.47;100.00;101977.25;5109001;28;20566;-84
2024/04/08 05:50:21;;;;;;;30.00;27.70;;;;;;;10.44;100.00;101980.28;5094622;28;20058;-83
2024/04/08 05:52:47;;;;;;;32.53;30.02;;;;;;;10.71;100.00;101978.09;5098181;28;20044;-84
2024/04/08 05:55:14;;;;;;;36.13;33.35;;;;;;;11.02;100.00;101982.56;5091070;28;20048;-83
2024/04/08 05:57:42;;;;;;;32.50;30.20;;;;;;;11.13;100.00;101985.59;5101566;28;20062;-84
2024/04/08 06:00:11;;;;;;;32.08;29.83;;;;;;;11.40;100.00;101978.88;5103786;28;20135;-83
2024/04/08 06:02:37;;;;;;;33.95;31.63;;;;;;;11.44;100.00;101977.53;5094519;28;20127;-84
2024/04/08 06:05:05;;;;;;;33.88;31.48;;;;;;;11.75;100.00;101976.56;5091157;28;20416;-84
2024/04/08 06:07:38;;;;;;;33.45;31.25;;;;;;;12.04;100.00;101974.91;5103794;28;20044;-83
2024/04/08 06:10:12;;;;;;;33.72;31.45;;;;;;;12.00;100.00;101971.81;5090381;28;20047;-83
2024/04/08 06:12:38;;;;;;;35.83;33.22;;;;;;;12.32;100.00;101978.56;5103877;28;20059;-83
2024/04/08 06:15:07;;;;;;;36.80;34.40;;;;;;;12.64;100.00;101978.31;5090883;28;20134;-84
2024/04/08 06:17:33;;;;;;;35.15;32.75;;;;;;;12.53;100.00;101979.63;5091253;28;20056;-84
2024/04/08 06:20:01;;;;;;;36.33;34.03;;;;;;;12.94;100.00;101984.34;5090916;28;20101;-83
2024/04/08 06:22:27;;;;;;;35.63;33.22;;;;;;;12.92;100.00;101973.91;5090724;28;20091;-84
2024/04/08 06:24:57;;;;;;;35.40;33.20;;;;;;;13.05;100.00;101975.84;5107804;28;20067;-84
2024/04/08 06:27:23;;;;;;;37.28;34.88;;;;;;;13.15;100.00;101973.66;5101305;28;20055;-84
2024/04/08 06:29:50;;;;;;;36.55;34.15;;;;;;;13.77;100.00;101972.09;5089965;28;20052;-84
2024/04/08 06:32:18;;;;;;;35.50;33.22;;;;;;;13.89;100.00;101973.19;5090668;28;20521;-84
2024/04/08 06:34:46;;;;;;;37.10;34.70;;;;;;;13.61;100.00;101973.22;5085374;28;20048;-75
2024/04/08 06:37:20;;;;;;;38.92;36.42;;;;;;;13.94;100.00;101980.59;5089996;28;20060;-75
2024/04/08 06:39:47;;;;;;;40.10;37.30;;;;;;;-143.39;100.00;64013.03;5102773;28;20044;-75
2024/04/08 06:42:16;;;;;;;39.03;36.55;;;;;;;14.46;100.00;101975.69;5110587;28;20077;-75
2024/04/08 06:44:48;;;;;;;36.17;33.88;;;;;;;14.86;100.00;101984.69;5103921;28;20058;-74
2024/04/08 06:47:15;;;;;;;37.95;35.35;;;;;;;15.11;100.00;101977.69;5099536;28;20044;-75
2024/04/08 06:49:44;;;;;;;37.05;34.75;;;;;;;15.26;100.00;101976.66;5097051;28;20055;-84
2024/04/08 06:52:10;;;;;;;38.30;35.90;;;;;;;15.58;100.00;101983.84;5089531;28;20427;-74
2024/04/08 06:54:37;;;;;;;37.92;35.53;;;;;;;15.65;100.00;101983.84;5103208;28;20048;-74
2024/04/08 06:57:04;;;;;;;36.10;33.80;;;;;;;15.86;100.00;101974.75;5089236;28;20047;-83
2024/04/08 06:59:31;;;;;;;40.33;37.83;;;;;;;15.95;100.00;101976.19;5089821;28;20087;-84
2024/04/08 07:01:57;;;;;;;37.55;35.15;;;;;;;16.01;100.00;101975.31;5100651;28;20412;-83
2024/04/08 07:04:25;;;;;;;35.35;33.25;;;;;;;16.31;100.00;101966.75;5090963;28;20066;-83
2024/04/08 07:06:53;;;;;;;35.15;32.90;;;;;;;16.14;100.00;101968.28;5090553;28;20548;-83
2024/04/08 07:09:21;;;;;;;34.78;32.67;;;;;;;16.63;100.00;101964.91;5090049;28;20493;-82
2024/04/08 07:11:49;;;;;;;34.58;32.45;;;;;;;16.93;100.00;101965.16;5091846;28;20048;-83
2024/04/08 07:14:16;;;;;;;31.27;29.27;;;;;;;17.17;100.00;101970.75;5090433;28;20799;-83
2024/04/08 07:16:48;;;;;;;31.85;29.95;;;;;;;17.20;100.00;101967.63;5089619;28;20667;-83
2024/04/08 07:19:15;;;;;;;31.27;29.42;;;;;;;17.28;100.00;101966.56;5090267;28;20442;-75
2024/04/08 07:21:41;;;;;;;31.13;29.42;;;;;;;17.15;100.00;101972.84;5089957;28;20056;-75
2024/04/08 07:24:10;;;;;;;27.35;25.73;;;;;;;17.16;100.00;101961.88;5090623;28;20044;-83
2024/04/08 07:26:36;;;;;;;29.30;27.70;;;;;;;17.38;100.00;101967.69;5110081;28;20101;-83
2024/04/08 07:29:09;;;;;;;27.40;25.90;;;;;;;17.90;100.00;101959.31;5110555;28;20062;-83
2024/04/08 07:31:37;;;;;;;26.45;24.98;;;;;;;17.87;100.00;101961.63;5110080;28;20074;-76
2024/04/08 07:34:36;;;;;;;29.27;27.67;;;;;;;17.79;100.00;101958.22;5106013;28;20104;-75
2024/04/08 07:37:03;;;;;;;31.00;29.30;;;;;;;17.66;100.00;101962.88;5098054;28;20133;-76
2024/04/08 07:39:34;;;;;;;29.40;27.70;;;;;;;18.27;100.00;101968.16;5110330;28;20043;-83
2024/04/08 07:42:00;;;;;;;29.55;27.85;;;;;;;18.77;100.00;101969.78;5102203;28;20052;-83
2024/04/08 07:44:30;;;;;;;30.00;28.40;;;;;;;19.27;100.00;101968.56;5089640;28;20044;-83
2024/04/08 07:46:56;;;;;;;28.48;26.88;;;;;;;18.88;100.00;101970.84;5102857;28;20058;-84
2024/04/08 07:49:23;;;;;;;27.70;26.20;;;;;;;19.26;100.00;101965.06;5104705;28;20043;-83
2024/04/08 07:51:50;;;;;;;27.83;26.33;;;;;;;19.13;100.00;101960.72;5110771;28;20054;-78
2024/04/08 07:54:17;;;;;;;26.05;24.65;;;;;;;19.50;100.00;101959.69;5107238;28;20068;-75
2024/04/08 07:56:44;;;;;;;25.60;24.10;;;;;;;19.21;100.00;101957.69;5089498;28;20048;-84
2024/04/08 07:59:18;;;;;;;25.63;24.13;;;;;;;19.79;100.00;101963.28;5099186;28;20146;-84
2024/04/08 08:01:44;;;;;;;26.00;24.40;;;;;;;19.64;100.00;101961.91;5110053;28;20080;-75
2024/04/08 08:04:12;;;;;;;28.58;26.88;;;;;;;19.95;100.00;101964.44;5104726;28;20044;-84
2024/04/08 08:06:44;;;;;;;44.22;28.25;;;;;;;18.95;100.00;101960.81;5097079;28;20495;-83
2024/04/08 08:09:11;;;;;;;30.80;28.90;;;;;;;19.32;100.00;101963.31;5106888;28;20051;-83
2024/04/08 08:11:38;;;;;;;41.00;38.80;;;;;;;19.80;100.00;101956.84;5110145;28;20040;-75
2024/04/08 08:14:06;;;;;;;37.65;35.55;;;;;;;19.80;100.00;101952.28;5099845;28;20044;-75
2024/04/08 08:16:34;;;;;;;35.40;33.55;;;;;;;19.62;100.00;101960.47;5089870;28;20471;-76
2024/04/08 08:19:01;;;;;;;40.05;37.88;;;;;;;19.17;100.00;101956.50;5089603;28;20132;-83
2024/04/08 08:21:31;;;;;;;35.25;33.35;;;;;;;19.83;100.00;101953.69;5091419;28;20457;-83
2024/04/08 08:23:58;;;;;;;35.17;33.25;;;;;;;20.54;100.00;101955.09;5099403;28;20040;-83
2024/04/08 08:26:28;;;;;;;38.13;36.13;;;;;;;20.61;100.00;101944.16;5114623;28;20104;-84
2024/04/08 08:28:55;;;;;;;32.45;30.65;;;;;;;20.56;100.00;101946.75;5110693;28;20058;-84
2024/04/08 08:31:24;;;;;;;33.38;31.58;;;;;;;20.46;100.00;101936.56;5107923;28;20054;-84
2024/04/08 08:33:50;;;;;;;35.85;33.85;;;;;;;20.61;100.00;101944.16;5112893;28;20047;-83
2024/04/08 08:36:17;;;;;;;39.33;37.20;;;;;;;21.28;100.00;101946.03;5088786;28;20048;-84
2024/04/08 08:38:45;;;;;;;37.85;35.80;;;;;;;21.57;100.00;101945.91;5093312;28;20063;-83
2024/04/08 08:41:13;;;;;;;35.40;33.50;;;;;;;21.73;100.00;101947.78;5103825;28;20052;-84
2024/04/08 08:43:40;;;;;;;31.45;29.75;;;;;;;22.20;100.00;101941.84;5093484;28;20048;-84
2024/04/08 08:46:17;;;;;;;34.88;32.85;;;;;;;21.98;100.00;101936.44;5111265;28;20507;-84
2024/04/08 08:48:50;;;;;;;34.47;32.47;;;;;;;21.61;100.00;101933.56;5113426;28;20055;-83
2024/04/08 08:51:27;;;;;;;36.45;34.25;;;;;;;21.38;100.00;101951.59;5113964;28;20303;-84
2024/04/08 08:53:54;;;;;;;33.35;31.35;;;;;;;22.25;100.00;101933.78;5113737;27;20117;-84
2024/04/08 08:56:29;;;;;;;37.17;34.97;;;;;;;21.76;100.00;101933.75;5104580;28;20105;-84
2024/04/08 08:59:03;;;;;;;35.92;33.85;;;;;;;22.09;100.00;101926.56;5093510;28;20048;-84
2024/04/08 09:01:32;;;;;;;40.47;38.10;;;;;;;22.39;100.00;101928.78;5092816;28;20082;-84
2024/04/08 09:04:03;;;;;;;32.45;30.45;;;;;;;-143.39;100.00;64013.03;5093147;28;20435;-83
2024/04/08 09:06:32;;;;;;;34.38;32.38;;;;;;;-143.39;100.00;64013.03;5099340;28;20116;-83
2024/04/08 09:08:59;;;;;;;33.92;31.92;;;;;;;-143.39;100.00;64013.03;5113252;28;20047;-84
2024/04/08 09:11:27;;;;;;;34.05;32.00;;;;;;;20.88;100.00;101928.16;5113617;28;20048;-84
2024/04/08 09:14:05;;;;;;;34.65;32.45;;;;;;;21.97;100.00;101934.81;5104250;28;20516;-84
2024/04/08 09:16:32;;;;;;;31.45;29.55;;;;;;;22.57;100.00;101923.03;5087644;28;20102;-84
2024/04/08 09:19:00;;;;;;;31.10;29.15;;;;;;;23.00;100.00;101917.69;5092216;28;20048;-83
2024/04/08 09:21:34;;;;;;;29.40;27.40;;;;;;;22.73;100.00;101912.31;5092575;28;20143;-84
2024/04/08 09:24:02;;;;;;;30.33;28.33;;;;;;;22.28;100.00;101917.06;5092612;28;20048;-84
2024/04/08 09:26:29;;;;;;;28.42;26.70;;;;;;;21.56;100.00;101911.84;5092192;28;20084;-83
2024/04/08 09:28:55;;;;;;;30.75;28.85;;;;;;;22.24;100.00;101910.53;5092259;28;20044;-84
2024/04/08 09:31:23;;;;;;;33.17;31.08;;;;;;;22.45;100.00;101903.41;5091835;28;20055;-84
2024/04/08 09:33:50;;;;;;;34.97;32.90;;;;;;;22.17;100.00;101902.59;5091220;28;20097;-84
2024/04/08 09:36:19;;;;;;;34.15;32.15;;;;;;;23.20;100.00;101904.25;5087174;28;20075;-84
2024/04/08 09:38:46;;;;;;;30.92;28.92;;;;;;;22.45;100.00;101900.72;5091516;28;20051;-83
2024/04/08 09:41:15;;;;;;;34.65;32.45;;;;;;;22.78;100.00;101890.66;5091490;28;20056;-83
2024/04/08 09:43:42;;;;;;;29.80;27.92;;;;;;;22.49;100.00;101893.69;5091141;28;20056;-84
2024/04/08 09:46:14;;;;;;;29.85;27.95;;;;;;;22.84;100.00;101884.22;5091005;28;20426;-84
2024/04/08 09:48:40;;;;;;;35.63;33.42;;;;;;;22.38;100.00;101881.94;5093256;28;20056;-84
2024/04/08 09:51:08;;;;;;;37.25;34.95;;;;;;;23.88;100.00;101884.53;5092011;28;20492;-84
2024/04/08 09:53:36;;;;;;;30.52;28.42;;;;;;;22.82;100.00;101873.66;5101918;28;20090;-83
2024/04/08 09:56:05;;;;;;;28.17;25.63;;;;;;;23.46;100.00;101880.81;5111901;28;20061;-84
2024/04/08 09:58:38;;;;;;;30.42;28.42;;;;;;;23.38;100.00;101881.31;5111984;28;20051;-84
2024/04/08 10:01:06;;;;;;;32.90;30.67;;;;;;;22.19;100.00;101869.88;5071332;28;20088;-83
2024/04/08 10:03:38;;;;;;;29.30;27.40;;;;;;;22.39;100.00;101874.66;5090928;28;20058;-83
2024/04/08 10:06:07;;;;;;;30.23;28.33;;;;;;;22.46;100.00;101877.16;5092172;28;20055;-84
2024/04/08 10:08:35;;;;;;;34.83;32.72;;;;;;;22.80;100.00;101870.38;5091230;28;20048;-84
2024/04/08 10:11:03;;;;;;;29.50;27.60;;;;;;;22.84;100.00;101868.81;5091542;28;20075;-84
2024/04/08 10:13:29;;;;;;;27.38;25.58;;;;;;;22.16;100.00;101863.09;5095932;28;20054;-80
2024/04/08 10:16:08;;;;;;;27.95;26.25;;;;;;;22.92;100.00;101859.38;5092556;28;20055;-84
2024/04/08 10:18:34;;;;;;;29.95;28.15;;;;;;;23.01;100.00;101863.25;5072940;28;20076;-85
2024/04/08 10:21:03;;;;;;;34.80;32.70;;;;;;;23.60;100.00;101859.47;5109299;28;20052;-84
2024/04/08 10:23:29;;;;;;;33.67;31.67;;;;;;;23.92;100.00;101847.66;5091327;28;20056;-77
2024/04/08 10:26:01;;;;;;;31.55;29.63;;;;;;;24.06;100.00;101847.97;5090102;28;20044;-76
2024/04/08 10:28:30;;;;;;;35.88;33.67;;;;;;;23.93;100.00;101847.41;5090238;28;20067;-77
2024/04/08 10:31:02;;;;;;;36.15;33.85;;;;;;;23.25;100.00;101841.16;5104814;28;20056;-76
2024/04/08 10:33:28;;;;;;;41.78;39.20;;;;;;;22.61;100.00;101845.63;5095799;28;20052;-76
2024/04/08 10:36:02;;;;;;;40.75;38.35;;;;;;;23.81;100.00;101837.84;5095222;28;20072;-76
2024/04/08 10:38:28;;;;;;;39.75;37.35;;;;;;;25.04;94.21;101841.41;5089890;28;20411;-83
2024/04/08 10:40:55;;;;;;;37.05;34.75;;;;;;;24.25;95.17;101824.63;5090733;28;20055;-82
2024/04/08 10:43:31;;;;;;;39.83;37.42;;;;;;;25.45;100.00;101825.78;5090498;28;20055;-83
2024/04/08 10:48:02;;;;;;;43.70;41.10;;;;;;;24.39;80.82;101819.47;5467450;26;20423;-81
2024/04/08 10:50:29;;;;;;;48.40;45.60;;;;;;;24.82;63.32;101814.56;5431698;26;20017;-83
2024/04/08 10:52:58;;;;;;;51.90;48.92;;;;;;;24.95;59.04;101805.00;5435000;26;19999;-83
2024/04/08 10:55:24;;;;;;;48.35;45.45;;;;;;;25.41;56.28;101802.94;5432566;26;19999;-82
2024/04/08 10:57:53;;;;;;;47.03;44.17;;;;;;;25.12;56.60;101803.59;5435409;26;20007;-83
2024/04/08 11:00:19;;;;;;;46.35;43.55;;;;;;;25.92;57.20;101790.97;5432991;26;19999;-83
2024/04/08 11:02:48;;;;;;;47.53;44.72;;;;;;;25.39;61.66;101793.44;5434998;26;20003;-82
2024/04/08 11:05:18;;;;;;;48.22;45.42;;;;;;;25.74;56.88;101787.00;5432628;26;20007;-83
2024/04/08 11:07:46;;;;;;;47.38;44.67;;;;;;;25.22;58.91;101782.94;5436444;26;20027;-83
2024/04/08 11:10:17;;;;;;;46.80;44.00;;;;;;;25.41;57.77;101772.22;5433809;26;20007;-83
2024/04/08 11:12:46;;;;;;;44.88;42.15;;;;;;;24.99;63.25;101778.91;5435048;26;20003;-81